Time;durP1;ratioP1;P1;durP2;ratioP2;P2;SDS_P1;SDS_P2;PMS_P1;PMS_P2;Temp;Humidity;BMP_temperature;BMP_pressure;BME280_temperature;BME280_humidity;BME280_pressure;Samples;Min_cycle;Max_cycle;Signal;HPM_P1;HPM_P2
2020/12/31 00:01:20;;;;;;;22.90;14.88;;;5.10;92.80;;;;;;5022039;28;20477;-72
2020/12/31 00:03:45;;;;;;;21.83;13.73;;;5.10;92.60;;;;;;5037976;28;20029;-74
2020/12/31 00:06:11;;;;;;;21.02;14.07;;;5.10;92.60;;;;;;5053375;28;20101;-74
2020/12/31 00:08:37;;;;;;;23.85;13.90;;;5.10;92.60;;;;;;5038536;28;20025;-75
2020/12/31 00:11:02;;;;;;;24.42;14.48;;;5.10;92.50;;;;;;5021364;28;20022;-73
2020/12/31 00:13:28;;;;;;;20.55;13.25;;;5.10;92.60;;;;;;5018427;28;20452;-72
2020/12/31 00:15:55;;;;;;;23.15;13.90;;;5.10;92.60;;;;;;5017182;28;20028;-72
2020/12/31 00:18:21;;;;;;;23.80;15.82;;;5.10;92.60;;;;;;5018542;28;20025;-72
2020/12/31 00:20:47;;;;;;;22.90;15.07;;;5.10;92.50;;;;;;5034787;28;20040;-72
2020/12/31 00:23:12;;;;;;;22.48;15.63;;;5.10;92.60;;;;;;5039028;28;20017;-74
2020/12/31 00:25:49;;;;;;;26.05;15.40;;;5.10;92.50;;;;;;5054316;28;20108;-72
2020/12/31 00:28:16;;;;;;;28.45;14.50;;;5.20;92.60;;;;;;5042353;28;20025;-73
2020/12/31 00:30:43;;;;;;;27.23;15.52;;;5.10;92.50;;;;;;5039077;28;20403;-73
2020/12/31 00:33:11;;;;;;;25.05;15.05;;;5.10;92.40;;;;;;5056557;28;20029;-72
2020/12/31 00:35:36;;;;;;;23.52;15.20;;;5.10;92.50;;;;;;5040494;28;20103;-72
2020/12/31 00:38:02;;;;;;;20.50;13.95;;;5.10;92.50;;;;;;5039765;28;20477;-72
2020/12/31 00:40:30;;;;;;;21.60;14.50;;;5.10;92.40;;;;;;5019450;28;20389;-77
2020/12/31 00:42:56;;;;;;;22.17;13.93;;;5.10;92.50;;;;;;5040763;28;20021;-74
2020/12/31 00:45:22;;;;;;;23.38;15.20;;;5.10;92.50;;;;;;5033258;28;20028;-73
2020/12/31 00:47:47;;;;;;;22.05;13.80;;;5.10;92.40;;;;;;5033670;28;20021;-73
2020/12/31 00:50:13;;;;;;;21.95;14.68;;;5.10;92.20;;;;;;5054927;28;20045;-73
2020/12/31 00:52:39;;;;;;;21.70;14.45;;;5.10;92.30;;;;;;5035142;28;20437;-74
2020/12/31 00:55:04;;;;;;;21.30;14.20;;;5.10;92.30;;;;;;5039137;28;20075;-74
2020/12/31 00:57:30;;;;;;;24.70;13.55;;;5.10;92.30;;;;;;5019048;28;20126;-75
2020/12/31 00:59:56;;;;;;;18.92;13.52;;;5.10;92.20;;;;;;5037246;28;20485;-74
2020/12/31 01:02:22;;;;;;;21.52;13.00;;;5.10;92.10;;;;;;5034403;28;20113;-74
2020/12/31 01:04:47;;;;;;;21.58;12.68;;;5.10;92.10;;;;;;5038265;28;20045;-73
2020/12/31 01:07:17;;;;;;;17.35;12.60;;;5.10;92.10;;;;;;5032941;28;20437;-73
2020/12/31 01:09:43;;;;;;;20.77;12.68;;;5.10;92.10;;;;;;5034853;28;20021;-72
2020/12/31 01:12:10;;;;;;;18.63;12.20;;;5.10;91.90;;;;;;5052203;28;20030;-73
2020/12/31 01:14:39;;;;;;;18.90;12.20;;;5.10;91.80;;;;;;5026897;28;20034;-73
2020/12/31 01:17:04;;;;;;;18.75;12.35;;;5.10;91.70;;;;;;5035834;28;20021;-73
2020/12/31 01:19:30;;;;;;;18.10;11.98;;;5.10;91.80;;;;;;5038788;28;20044;-73
2020/12/31 01:21:56;;;;;;;22.38;13.85;;;5.10;91.70;;;;;;5041647;28;20029;-73
2020/12/31 01:24:21;;;;;;;20.52;12.05;;;5.10;91.90;;;;;;5021480;28;20507;-74
2020/12/31 01:26:47;;;;;;;18.20;12.00;;;5.10;91.70;;;;;;5026182;28;20017;-73
2020/12/31 01:29:13;;;;;;;18.50;11.93;;;5.10;91.40;;;;;;5017858;28;20087;-72
2020/12/31 01:31:38;;;;;;;19.77;11.25;;;5.10;91.40;;;;;;5019158;28;20041;-72
2020/12/31 01:34:06;;;;;;;17.33;11.38;;;5.10;91.40;;;;;;5048778;28;20032;-72
2020/12/31 01:36:34;;;;;;;18.77;11.68;;;5.10;91.40;;;;;;5054190;28;20091;-72
2020/12/31 01:39:00;;;;;;;21.35;12.18;;;5.10;91.40;;;;;;5015525;28;20061;-72
2020/12/31 01:41:26;;;;;;;19.13;11.15;;;5.00;91.30;;;;;;5037301;28;20061;-72
2020/12/31 01:44:06;;;;;;;17.42;10.93;;;5.00;91.60;;;;;;5038050;28;20025;-71
2020/12/31 01:46:34;;;;;;;16.33;11.70;;;5.00;91.60;;;;;;5037386;28;20108;-72
2020/12/31 01:49:02;;;;;;;17.60;11.07;;;5.00;91.50;;;;;;5041371;28;20026;-72
2020/12/31 01:51:29;;;;;;;19.65;11.57;;;5.00;91.50;;;;;;5052893;22;20041;-78
2020/12/31 01:53:56;;;;;;;16.90;10.93;;;5.00;91.50;;;;;;5023125;28;20036;-77
2020/12/31 01:56:28;;;;;;;18.17;11.20;;;5.00;91.60;;;;;;5017815;28;20087;-76
2020/12/31 01:58:53;;;;;;;19.13;12.00;;;5.00;91.40;;;;;;5040740;28;20052;-76
2020/12/31 02:01:21;;;;;;;17.67;10.88;;;5.00;91.30;;;;;;5021376;28;20037;-77
2020/12/31 02:03:48;;;;;;;17.40;11.30;;;5.00;91.30;;;;;;5037555;28;20029;-76
2020/12/31 02:06:14;;;;;;;16.10;10.60;;;4.90;91.30;;;;;;5037843;28;20021;-77
2020/12/31 02:08:46;;;;;;;18.60;11.95;;;5.00;91.30;;;;;;5023745;28;20100;-77
2020/12/31 02:11:14;;;;;;;21.42;11.98;;;4.90;91.10;;;;;;5052717;28;20025;-76
2020/12/31 02:13:41;;;;;;;20.85;12.52;;;4.90;91.10;;;;;;5032322;28;20040;-75
2020/12/31 02:16:13;;;;;;;19.92;12.63;;;4.90;91.10;;;;;;5042573;28;20093;-75
2020/12/31 02:18:55;;;;;;;22.15;13.18;;;4.90;91.00;;;;;;5020087;28;20021;-76
2020/12/31 02:21:35;;;;;;;23.58;12.57;;;4.90;91.00;;;;;;5034914;28;20041;-76
2020/12/31 02:24:06;;;;;;;20.17;12.98;;;4.90;91.00;;;;;;5037854;28;20022;-76
2020/12/31 02:26:34;;;;;;;21.65;12.43;;;4.90;91.10;;;;;;5019263;28;20041;-76
2020/12/31 02:29:02;;;;;;;23.10;13.15;;;4.90;90.90;;;;;;5036076;28;20033;-76
2020/12/31 02:31:27;;;;;;;21.15;12.73;;;4.80;90.90;;;;;;5036569;28;20056;-76
2020/12/31 02:33:55;;;;;;;27.38;14.98;;;4.80;91.10;;;;;;5035653;28;20033;-76
2020/12/31 02:36:24;;;;;;;23.77;13.95;;;4.80;91.10;;;;;;5036309;28;20029;-77
2020/12/31 02:38:50;;;;;;;24.38;14.50;;;4.70;91.10;;;;;;5038453;28;20024;-76
2020/12/31 02:41:17;;;;;;;22.95;13.90;;;4.70;91.10;;;;;;5035951;28;20695;-77
2020/12/31 02:43:42;;;;;;;24.73;14.35;;;4.80;91.10;;;;;;5019128;28;20481;-77
2020/12/31 02:46:11;;;;;;;22.67;14.27;;;4.80;91.00;;;;;;5024489;28;20040;-77
2020/12/31 02:48:38;;;;;;;25.00;14.82;;;4.80;91.00;;;;;;5031315;28;20026;-76
2020/12/31 02:51:04;;;;;;;25.75;15.48;;;4.80;91.10;;;;;;5040236;28;20022;-77
2020/12/31 02:53:29;;;;;;;26.80;15.20;;;4.70;91.10;;;;;;5041857;28;20518;-76
2020/12/31 02:55:55;;;;;;;30.05;16.48;;;4.70;91.10;;;;;;5034284;28;20099;-75
2020/12/31 02:58:21;;;;;;;28.58;16.10;;;4.70;91.20;;;;;;5035629;28;20113;-77
2020/12/31 03:00:46;;;;;;;30.10;16.10;;;4.70;91.20;;;;;;5033333;28;20067;-77
2020/12/31 03:03:12;;;;;;;28.27;16.33;;;4.70;91.10;;;;;;5036873;28;20053;-77
2020/12/31 03:05:38;;;;;;;28.92;17.35;;;4.80;91.10;;;;;;5014799;28;20025;-77
2020/12/31 03:08:04;;;;;;;36.33;18.58;;;4.70;91.10;;;;;;5034681;28;20032;-75
2020/12/31 03:10:30;;;;;;;31.30;18.08;;;4.70;91.10;;;;;;5035909;28;20029;-76
2020/12/31 03:12:57;;;;;;;36.45;18.95;;;4.70;91.00;;;;;;5036769;28;20101;-75
2020/12/31 03:15:23;;;;;;;33.63;18.95;;;4.70;91.10;;;;;;5016196;28;20508;-76
2020/12/31 03:17:49;;;;;;;36.70;18.65;;;4.70;91.00;;;;;;5035325;28;20432;-77
2020/12/31 03:20:15;;;;;;;32.72;18.58;;;4.70;91.10;;;;;;5040032;28;20485;-77
2020/12/31 03:22:41;;;;;;;36.25;19.73;;;4.60;91.10;;;;;;5036241;28;20047;-77
2020/12/31 03:25:07;;;;;;;32.35;18.50;;;4.60;91.20;;;;;;5017005;28;20024;-76
2020/12/31 03:27:34;;;;;;;34.03;19.00;;;4.60;91.20;;;;;;5032017;28;20033;-77
2020/12/31 03:30:00;;;;;;;36.35;20.52;;;4.60;91.20;;;;;;5023609;28;20052;-77
2020/12/31 03:32:26;;;;;;;35.58;19.50;;;4.60;91.30;;;;;;5034679;28;20397;-76
2020/12/31 03:34:51;;;;;;;36.90;19.98;;;4.60;91.20;;;;;;5032871;28;20022;-76
2020/12/31 03:37:17;;;;;;;35.58;19.88;;;4.60;91.20;;;;;;5021627;28;20035;-77
2020/12/31 03:39:43;;;;;;;33.33;19.30;;;4.60;91.10;;;;;;5014952;28;20041;-77
2020/12/31 03:42:12;;;;;;;36.88;20.27;;;4.60;91.20;;;;;;5032795;28;20103;-77
2020/12/31 03:44:38;;;;;;;37.15;18.77;;;4.60;91.20;;;;;;5035047;28;20029;-77
2020/12/31 03:47:03;;;;;;;35.47;20.00;;;4.60;91.20;;;;;;5016812;28;20029;-76
2020/12/31 03:49:29;;;;;;;35.25;19.98;;;4.60;91.20;;;;;;5023413;28;20120;-77
2020/12/31 03:51:55;;;;;;;38.67;20.27;;;4.60;91.10;;;;;;5020168;28;20526;-77
2020/12/31 03:54:20;;;;;;;35.25;20.02;;;4.50;91.20;;;;;;5035525;28;20030;-77
2020/12/31 03:56:46;;;;;;;37.10;20.48;;;4.50;91.10;;;;;;5038854;28;20029;-75
2020/12/31 03:59:12;;;;;;;36.13;21.27;;;4.60;91.10;;;;;;5040085;28;20029;-77
2020/12/31 04:01:37;;;;;;;34.03;19.70;;;4.50;91.20;;;;;;5038726;28;20144;-77
2020/12/31 04:04:03;;;;;;;41.33;20.75;;;4.60;91.10;;;;;;5023043;28;20022;-77
2020/12/31 04:06:32;;;;;;;42.08;20.02;;;4.50;91.00;;;;;;5031457;28;20026;-77
2020/12/31 04:08:58;;;;;;;34.75;19.83;;;4.50;91.00;;;;;;5038994;28;20025;-77
2020/12/31 04:11:24;;;;;;;38.47;20.92;;;4.50;90.90;;;;;;5039005;28;20039;-77
2020/12/31 04:13:49;;;;;;;38.13;21.00;;;4.40;91.10;;;;;;5032874;28;20026;-76
2020/12/31 04:16:15;;;;;;;38.40;21.48;;;4.40;91.10;;;;;;5033254;28;20056;-76
2020/12/31 04:18:41;;;;;;;36.63;19.80;;;4.40;91.10;;;;;;5040250;28;20040;-77
2020/12/31 04:21:08;;;;;;;39.17;20.50;;;4.40;91.00;;;;;;5036508;28;20028;-75
2020/12/31 04:23:34;;;;;;;40.97;21.48;;;4.40;91.10;;;;;;5038790;28;20029;-77
2020/12/31 04:26:00;;;;;;;39.78;20.55;;;4.40;91.30;;;;;;5021427;28;20109;-77
2020/12/31 04:28:25;;;;;;;36.20;19.70;;;4.40;91.10;;;;;;5036485;28;20021;-76
2020/12/31 04:30:51;;;;;;;41.60;20.60;;;4.40;91.10;;;;;;5033237;28;20017;-77
2020/12/31 04:33:17;;;;;;;45.88;19.90;;;4.40;91.00;;;;;;5033035;28;20057;-77
2020/12/31 04:35:44;;;;;;;40.83;20.08;;;4.40;91.10;;;;;;5017832;28;20044;-76
2020/12/31 04:38:10;;;;;;;38.50;20.00;;;4.40;91.00;;;;;;5037143;28;20504;-77
2020/12/31 04:40:42;;;;;;;38.97;20.10;;;4.40;91.10;;;;;;5035119;28;20029;-77
2020/12/31 04:43:09;;;;;;;36.13;20.52;;;4.40;91.10;;;;;;5013117;28;20388;-77
2020/12/31 04:45:34;;;;;;;37.40;20.50;;;4.40;91.00;;;;;;5034303;28;20029;-77
2020/12/31 04:48:03;;;;;;;44.72;22.48;;;4.40;90.90;;;;;;5036496;28;20389;-77
2020/12/31 04:50:33;;;;;;;39.45;19.95;;;4.30;90.90;;;;;;5017741;28;20038;-77
2020/12/31 04:53:09;;;;;;;39.67;21.75;;;4.30;91.10;;;;;;5018940;28;20040;-77
2020/12/31 04:55:46;;;;;;;40.20;22.33;;;4.40;91.10;;;;;;5035395;28;20032;-77
2020/12/31 04:58:14;;;;;;;41.03;19.67;;;4.40;91.00;;;;;;5015920;28;20030;-76
2020/12/31 05:00:41;;;;;;;42.63;21.75;;;4.40;91.00;;;;;;5031963;28;20037;-74
2020/12/31 05:03:07;;;;;;;39.50;21.05;;;4.30;91.10;;;;;;5043735;28;20021;-77
2020/12/31 05:05:33;;;;;;;41.85;21.00;;;4.30;91.30;;;;;;5034663;28;20421;-76
2020/12/31 05:07:59;;;;;;;38.92;20.48;;;4.40;91.00;;;;;;5035220;28;20599;-76
2020/12/31 05:10:26;;;;;;;38.65;21.50;;;4.40;91.10;;;;;;5038062;28;20497;-76
2020/12/31 05:13:03;;;;;;;42.72;22.10;;;4.30;91.10;;;;;;5032668;28;20021;-76
2020/12/31 05:15:48;;;;;;;39.47;21.73;;;4.30;91.10;;;;;;5028560;28;20033;-77
2020/12/31 05:18:18;;;;;;;47.45;21.27;;;4.30;91.20;;;;;;5031182;28;20540;-76
2020/12/31 05:20:53;;;;;;;39.67;21.88;;;4.30;91.20;;;;;;5038156;28;20057;-77
2020/12/31 05:23:21;;;;;;;40.70;21.17;;;4.30;91.20;;;;;;5031824;28;20464;-77
2020/12/31 05:25:48;;;;;;;40.25;22.48;;;4.30;91.20;;;;;;5032485;28;20025;-77
2020/12/31 05:28:34;;;;;;;36.85;21.17;;;4.30;91.00;;;;;;5017624;28;20025;-77
2020/12/31 05:31:02;;;;;;;40.38;21.52;;;4.30;91.10;;;;;;5033484;28;20029;-77
2020/12/31 05:33:31;;;;;;;42.05;20.75;;;4.30;91.10;;;;;;5014438;28;20022;-76
2020/12/31 05:36:26;;;;;;;36.70;19.63;;;4.40;91.00;;;;;;5026045;28;20021;-77
2020/12/31 05:38:54;;;;;;;42.53;21.63;;;4.30;91.00;;;;;;5035718;28;20849;-77
2020/12/31 05:41:21;;;;;;;40.22;20.60;;;4.30;91.10;;;;;;5032375;28;20476;-77
2020/12/31 05:43:53;;;;;;;42.38;20.80;;;4.30;91.10;;;;;;5036009;28;20071;-77
2020/12/31 05:46:19;;;;;;;38.10;21.45;;;4.20;91.20;;;;;;5041301;28;20026;-78
2020/12/31 05:48:54;;;;;;;37.83;21.02;;;4.20;91.20;;;;;;5029817;28;20571;-78
2020/12/31 05:51:25;;;;;;;37.30;20.35;;;4.20;91.20;;;;;;5037738;28;20022;-77
2020/12/31 05:53:51;;;;;;;40.65;20.60;;;4.20;91.20;;;;;;5038582;28;20040;-78
2020/12/31 05:56:19;;;;;;;42.33;20.67;;;4.10;91.10;;;;;;5017678;28;20029;-77
2020/12/31 05:58:48;;;;;;;36.25;19.88;;;4.10;91.20;;;;;;5033320;28;20017;-77
2020/12/31 06:01:14;;;;;;;44.08;21.00;;;4.10;91.20;;;;;;5020828;28;20028;-77
2020/12/31 06:03:52;;;;;;;40.30;21.00;;;4.20;91.20;;;;;;5015731;28;20042;-76
2020/12/31 06:06:20;;;;;;;35.53;19.60;;;4.10;91.20;;;;;;5020588;28;20052;-77
2020/12/31 06:08:58;;;;;;;45.67;22.30;;;4.10;91.20;;;;;;5033922;28;20021;-79
2020/12/31 06:11:31;;;;;;;42.03;21.30;;;4.10;91.30;;;;;;5036745;28;20078;-77
2020/12/31 06:13:58;;;;;;;36.35;19.33;;;4.10;91.20;;;;;;5029790;28;20029;-77
2020/12/31 06:16:27;;;;;;;41.25;20.25;;;4.10;91.20;;;;;;5034143;28;20041;-77
2020/12/31 06:19:01;;;;;;;44.22;21.50;;;4.20;91.10;;;;;;5033330;28;20028;-77
2020/12/31 06:21:57;;;;;;;38.05;20.55;;;4.20;91.10;;;;;;5017878;28;20033;-77
2020/12/31 06:24:31;;;;;;;34.78;19.58;;;4.20;91.00;;;;;;5018929;28;20029;-77
2020/12/31 06:27:11;;;;;;;41.40;20.67;;;4.20;91.00;;;;;;5031980;28;20014;-77
2020/12/31 06:29:48;;;;;;;36.97;19.23;;;4.20;91.10;;;;;;5052359;28;20706;-77
2020/12/31 06:32:30;;;;;;;36.58;18.77;;;4.20;90.80;;;;;;5037741;28;20029;-77
2020/12/31 06:35:07;;;;;;;38.60;19.45;;;4.20;90.70;;;;;;5036363;28;20037;-77
2020/12/31 06:37:33;;;;;;;35.95;19.15;;;4.20;90.80;;;;;;5041636;28;20033;-77
2020/12/31 06:40:25;;;;;;;35.03;19.73;;;4.20;90.80;;;;;;5038440;28;20091;-77
2020/12/31 06:43:14;;;;;;;39.67;19.35;;;4.20;90.70;;;;;;5035163;28;20033;-75
2020/12/31 06:45:39;;;;;;;35.53;17.35;;;4.20;90.80;;;;;;5030908;28;20573;-77
2020/12/31 06:48:26;;;;;;;35.92;18.38;;;4.10;90.80;;;;;;5037419;28;20097;-75
2020/12/31 06:51:05;;;;;;;36.78;19.70;;;4.10;90.80;;;;;;5021379;28;20085;-77
2020/12/31 06:53:51;;;;;;;36.80;19.33;;;4.10;91.00;;;;;;5033341;28;20405;-75
2020/12/31 06:56:36;;;;;;;36.47;17.08;;;4.10;91.10;;;;;;5037039;28;20036;-75
2020/12/31 06:59:35;;;;;;;33.45;17.70;;;4.20;92.10;;;;;;5035934;28;20522;-77
2020/12/31 07:02:19;;;;;;;36.67;18.70;;;4.30;90.80;;;;;;5025761;28;20041;-79
2020/12/31 07:04:45;;;;;;;35.42;18.80;;;4.30;90.60;;;;;;5039264;28;20034;-76
2020/12/31 07:07:20;;;;;;;32.42;18.38;;;4.30;90.60;;;;;;5038251;28;20143;-75
2020/12/31 07:10:00;;;;;;;36.28;18.45;;;4.20;90.60;;;;;;5041094;28;20111;-77
2020/12/31 07:12:38;;;;;;;32.08;17.85;;;4.10;90.70;;;;;;5026417;28;20029;-76
2020/12/31 07:15:08;;;;;;;37.60;19.10;;;4.10;90.80;;;;;;5036790;28;20492;-76
2020/12/31 07:17:36;;;;;;;36.25;18.63;;;4.10;91.00;;;;;;5042582;28;20036;-76
2020/12/31 07:20:03;;;;;;;34.38;17.98;;;4.10;90.90;;;;;;5037247;28;20048;-75
2020/12/31 07:22:29;;;;;;;31.50;16.83;;;4.10;90.80;;;;;;5034727;28;20495;-78
2020/12/31 07:24:55;;;;;;;32.33;16.63;;;4.10;90.90;;;;;;5037150;28;20025;-76
2020/12/31 07:27:31;;;;;;;30.85;16.00;;;4.10;90.80;;;;;;5030322;28;20029;-77
2020/12/31 07:29:56;;;;;;;30.50;15.98;;;4.10;90.90;;;;;;5042672;28;20763;-76
2020/12/31 07:33:01;;;;;;;29.20;14.98;;;4.10;91.00;;;;;;5021418;28;20025;-76
2020/12/31 07:35:33;;;;;;;32.50;14.88;;;4.20;90.70;;;;;;5027426;28;20045;-77
2020/12/31 07:38:10;;;;;;;29.77;15.35;;;4.10;90.80;;;;;;5030674;28;20160;-77
2020/12/31 07:40:36;;;;;;;28.75;15.45;;;4.20;90.50;;;;;;5017322;28;20074;-76
2020/12/31 07:43:03;;;;;;;26.20;15.00;;;4.20;90.50;;;;;;5036870;28;20033;-76
2020/12/31 07:45:31;;;;;;;25.92;14.82;;;4.20;90.40;;;;;;5034380;28;20124;-77
2020/12/31 07:47:58;;;;;;;29.80;15.02;;;4.20;90.40;;;;;;5034802;28;20159;-77
2020/12/31 07:50:24;;;;;;;23.08;13.63;;;4.20;90.50;;;;;;5037043;28;20449;-77
2020/12/31 07:52:50;;;;;;;26.15;14.65;;;4.30;90.50;;;;;;5027499;28;20671;-75
2020/12/31 07:55:17;;;;;;;26.42;13.90;;;4.30;90.40;;;;;;5033159;28;20476;-76
2020/12/31 07:57:42;;;;;;;25.23;13.13;;;4.20;90.50;;;;;;5031971;28;20028;-75
2020/12/31 08:00:17;;;;;;;28.02;14.65;;;4.20;90.50;;;;;;5045224;28;20021;-76
2020/12/31 08:02:48;;;;;;;25.27;13.38;;;4.20;90.50;;;;;;5014792;28;20440;-75
2020/12/31 08:05:16;;;;;;;21.42;12.13;;;4.20;90.50;;;;;;5030832;28;20021;-75
2020/12/31 08:07:41;;;;;;;22.77;13.25;;;4.30;90.40;;;;;;5032023;28;20029;-75
2020/12/31 08:10:10;;;;;;;22.95;12.95;;;4.40;90.20;;;;;;5015066;28;20017;-76
2020/12/31 08:12:40;;;;;;;24.10;14.07;;;4.40;90.10;;;;;;5038183;28;20026;-75
2020/12/31 08:15:07;;;;;;;22.88;12.68;;;4.40;90.30;;;;;;5033806;28;20029;-75
2020/12/31 08:17:33;;;;;;;21.23;12.18;;;4.30;90.40;;;;;;5031253;28;20029;-76
2020/12/31 08:20:02;;;;;;;23.00;13.15;;;4.30;90.40;;;;;;5019176;28;20546;-76
2020/12/31 08:22:38;;;;;;;21.15;12.40;;;4.30;90.40;;;;;;5031614;28;20416;-76
2020/12/31 08:25:12;;;;;;;21.27;12.30;;;4.40;90.20;;;;;;5011399;28;20021;-76
2020/12/31 08:27:40;;;;;;;22.35;11.68;;;4.40;90.30;;;;;;5033086;28;20028;-75
2020/12/31 08:30:10;;;;;;;20.80;12.07;;;4.30;90.40;;;;;;5034223;28;20029;-75
2020/12/31 08:32:52;;;;;;;19.60;12.23;;;4.40;90.30;;;;;;5013563;28;20489;-75
2020/12/31 08:35:27;;;;;;;20.25;11.50;;;4.40;90.40;;;;;;5018614;28;20132;-76
2020/12/31 08:38:02;;;;;;;19.08;10.77;;;4.40;90.40;;;;;;5031369;28;20388;-75
2020/12/31 08:40:30;;;;;;;19.40;10.93;;;4.50;90.40;;;;;;5031635;28;20116;-74
2020/12/31 08:42:56;;;;;;;17.50;10.85;;;4.50;90.20;;;;;;5028928;28;20048;-75
2020/12/31 08:45:32;;;;;;;16.30;10.35;;;4.40;90.30;;;;;;5019839;28;20025;-74
2020/12/31 08:48:13;;;;;;;17.73;10.77;;;4.50;90.10;;;;;;5024289;28;20024;-74
2020/12/31 08:50:39;;;;;;;21.37;11.27;;;4.60;90.20;;;;;;5030476;28;20025;-74
2020/12/31 08:53:05;;;;;;;17.60;11.45;;;4.50;89.90;;;;;;5037586;28;20037;-75
2020/12/31 08:55:34;;;;;;;18.08;10.93;;;4.50;90.20;;;;;;5029429;28;20029;-74
2020/12/31 08:58:25;;;;;;;17.25;10.30;;;4.40;90.20;;;;;;5027326;28;20026;-74
2020/12/31 09:00:50;;;;;;;15.57;10.02;;;4.50;90.30;;;;;;5023666;28;20451;-74
2020/12/31 09:03:19;;;;;;;16.17;10.00;;;4.40;90.30;;;;;;5028904;28;20116;-74
2020/12/31 09:05:55;;;;;;;16.20;9.88;;;4.40;90.20;;;;;;5033863;28;20025;-75
2020/12/31 09:08:21;;;;;;;16.33;9.65;;;4.40;90.30;;;;;;5022676;28;20031;-78
2020/12/31 09:10:47;;;;;;;14.65;9.55;;;4.40;90.40;;;;;;5032802;28;20529;-77
2020/12/31 09:13:19;;;;;;;14.45;9.38;;;4.50;90.30;;;;;;5034285;28;20040;-75
2020/12/31 09:15:45;;;;;;;16.92;9.75;;;4.50;90.30;;;;;;5024638;28;20045;-75
2020/12/31 09:18:18;;;;;;;14.02;9.13;;;4.50;90.30;;;;;;5042355;28;20086;-75
2020/12/31 09:20:44;;;;;;;15.73;9.52;;;4.50;90.30;;;;;;5031571;28;20442;-75
2020/12/31 09:23:11;;;;;;;14.57;9.35;;;4.50;90.20;;;;;;5014754;28;20116;-75
2020/12/31 09:25:50;;;;;;;14.13;9.38;;;4.50;90.10;;;;;;5026976;28;20029;-76
2020/12/31 09:28:17;;;;;;;14.95;9.73;;;4.60;90.00;;;;;;5024621;28;20029;-75
2020/12/31 09:30:43;;;;;;;15.38;9.60;;;4.50;90.10;;;;;;5016059;28;20052;-75
2020/12/31 09:33:10;;;;;;;15.57;9.30;;;4.50;90.20;;;;;;5046946;28;20009;-75
2020/12/31 09:35:36;;;;;;;16.63;9.75;;;4.50;90.10;;;;;;5052560;28;20111;-75
2020/12/31 09:38:02;;;;;;;13.32;8.40;;;4.60;90.10;;;;;;5022319;28;20120;-74
2020/12/31 09:40:28;;;;;;;13.23;8.25;;;4.60;90.00;;;;;;5033446;28;20026;-75
2020/12/31 09:42:55;;;;;;;14.13;9.13;;;4.50;90.10;;;;;;5035033;28;20113;-76
2020/12/31 09:45:21;;;;;;;13.88;9.40;;;4.50;90.10;;;;;;5035103;28;20032;-78
2020/12/31 09:47:46;;;;;;;15.40;9.02;;;4.40;90.30;;;;;;5035488;28;20025;-78
2020/12/31 09:50:12;;;;;;;13.48;8.88;;;4.50;90.40;;;;;;5012142;28;20442;-76
2020/12/31 09:52:39;;;;;;;13.98;8.75;;;4.50;90.30;;;;;;5005706;28;20119;-76
2020/12/31 09:55:07;;;;;;;13.57;8.73;;;4.40;90.30;;;;;;5031349;28;20032;-79
2020/12/31 09:57:34;;;;;;;14.07;8.95;;;4.40;90.40;;;;;;5039568;28;20026;-76
2020/12/31 10:00:03;;;;;;;13.52;8.55;;;4.50;90.20;;;;;;5035875;28;20048;-76
2020/12/31 10:02:29;;;;;;;12.48;8.20;;;4.50;90.20;;;;;;5034592;28;20033;-74
2020/12/31 10:04:54;;;;;;;14.13;8.63;;;4.40;90.10;;;;;;5032919;28;20029;-75
2020/12/31 10:07:20;;;;;;;14.50;9.52;;;4.50;90.10;;;;;;5039008;28;20026;-75
2020/12/31 10:09:46;;;;;;;12.90;8.13;;;4.40;90.20;;;;;;5039629;28;20033;-75
2020/12/31 10:12:13;;;;;;;16.73;9.10;;;4.60;91.00;;;;;;5031096;28;20071;-75
2020/12/31 10:14:39;;;;;;;13.32;8.65;;;4.60;90.20;;;;;;5028949;28;20033;-78
2020/12/31 10:17:05;;;;;;;14.15;8.85;;;4.60;90.40;;;;;;5034843;28;20016;-75
2020/12/31 10:19:31;;;;;;;16.17;9.10;;;4.60;90.20;;;;;;5014592;28;20040;-75
2020/12/31 10:21:57;;;;;;;15.23;8.80;;;4.60;90.10;;;;;;5037457;28;20048;-77
2020/12/31 10:24:23;;;;;;;13.13;8.18;;;4.60;90.10;;;;;;5017416;28;20029;-78
2020/12/31 10:26:48;;;;;;;14.10;8.77;;;4.60;90.20;;;;;;5035048;28;20022;-78
2020/12/31 10:29:15;;;;;;;14.70;9.13;;;4.50;90.30;;;;;;5036434;28;20476;-77
2020/12/31 10:31:42;;;;;;;14.82;8.93;;;4.50;90.30;;;;;;5035497;28;20465;-77
2020/12/31 10:34:12;;;;;;;15.02;9.98;;;4.50;90.50;;;;;;5041950;28;20041;-76
2020/12/31 10:36:38;;;;;;;16.48;9.52;;;4.50;90.60;;;;;;5047123;28;20057;-78
2020/12/31 10:39:05;;;;;;;14.15;8.82;;;4.50;90.40;;;;;;5021781;28;21322;-77
2020/12/31 10:41:31;;;;;;;16.35;10.75;;;4.50;90.40;;;;;;5040620;28;20033;-78
2020/12/31 10:43:58;;;;;;;16.25;10.30;;;4.50;90.50;;;;;;5041362;28;20534;-78
2020/12/31 10:46:24;;;;;;;16.65;9.25;;;4.40;90.60;;;;;;5041825;28;20029;-77
2020/12/31 10:48:50;;;;;;;14.43;9.13;;;4.50;90.60;;;;;;5052925;28;20025;-78
2020/12/31 10:51:16;;;;;;;16.33;8.38;;;4.50;90.60;;;;;;5040814;28;20100;-77
2020/12/31 10:53:45;;;;;;;15.77;8.68;;;4.50;90.70;;;;;;5027896;28;20026;-78
2020/12/31 10:56:11;;;;;;;12.43;8.55;;;4.40;90.70;;;;;;5023065;28;20440;-79
2020/12/31 10:58:37;;;;;;;13.48;8.27;;;4.40;90.80;;;;;;5042750;28;20031;-80
2020/12/31 11:01:03;;;;;;;14.20;8.55;;;4.40;90.80;;;;;;5032660;28;20033;-76
2020/12/31 11:03:30;;;;;;;13.57;8.38;;;4.50;90.90;;;;;;5022501;28;20097;-75
2020/12/31 11:05:56;;;;;;;14.10;8.88;;;4.50;90.80;;;;;;5048087;28;20025;-77
2020/12/31 11:08:22;;;;;;;18.58;10.02;;;4.50;90.90;;;;;;5018879;28;20175;-77
2020/12/31 11:10:48;;;;;;;16.48;9.35;;;4.60;90.70;;;;;;5035771;28;20064;-76
2020/12/31 11:13:14;;;;;;;14.63;8.43;;;4.60;90.60;;;;;;5035537;28;20037;-76
2020/12/31 11:15:43;;;;;;;12.60;7.90;;;4.60;90.50;;;;;;5032044;28;20784;-77
2020/12/31 11:18:08;;;;;;;11.23;7.57;;;4.60;90.40;;;;;;5035082;28;20025;-76
2020/12/31 11:20:34;;;;;;;12.48;7.40;;;4.60;90.40;;;;;;5040213;28;20412;-76
2020/12/31 11:23:00;;;;;;;13.05;8.05;;;4.60;90.50;;;;;;5018058;28;20030;-78
2020/12/31 11:25:25;;;;;;;10.60;7.40;;;4.50;90.50;;;;;;5035639;28;20036;-78
2020/12/31 11:27:51;;;;;;;10.80;7.50;;;4.60;90.50;;;;;;5033494;28;20029;-78
2020/12/31 11:30:17;;;;;;;14.98;8.60;;;4.60;90.60;;;;;;5039497;28;20034;-76
2020/12/31 11:32:43;;;;;;;11.43;6.78;;;4.70;90.30;;;;;;5024550;28;20071;-77
2020/12/31 11:35:09;;;;;;;10.82;7.10;;;4.60;90.30;;;;;;5037918;28;20032;-76
2020/12/31 11:37:35;;;;;;;13.18;7.43;;;4.60;90.40;;;;;;5035951;28;20037;-77
2020/12/31 11:40:04;;;;;;;10.57;7.22;;;4.60;90.40;;;;;;5017442;28;20037;-77
2020/12/31 11:42:34;;;;;;;10.10;7.20;;;4.50;90.50;;;;;;5021400;28;20027;-76
2020/12/31 11:45:00;;;;;;;11.05;7.30;;;4.60;90.50;;;;;;5029817;28;20021;-76
2020/12/31 11:47:26;;;;;;;12.13;7.30;;;4.60;90.50;;;;;;5038298;28;20036;-76
2020/12/31 11:49:52;;;;;;;10.25;6.65;;;4.60;90.40;;;;;;5029303;28;20029;-75
2020/12/31 11:52:18;;;;;;;11.05;7.05;;;4.50;90.50;;;;;;5056621;28;20499;-77
2020/12/31 11:54:44;;;;;;;12.93;7.22;;;4.60;90.40;;;;;;5035681;28;20025;-77
2020/12/31 11:57:09;;;;;;;10.02;6.47;;;4.50;90.60;;;;;;5036163;28;20117;-76
2020/12/31 11:59:35;;;;;;;9.13;6.05;;;4.50;90.60;;;;;;5033715;28;20483;-77
2020/12/31 12:02:01;;;;;;;10.45;6.78;;;4.50;90.70;;;;;;5036662;28;20381;-76
2020/12/31 12:04:26;;;;;;;9.70;6.38;;;4.60;90.40;;;;;;5038297;28;20203;-75
2020/12/31 12:06:54;;;;;;;11.75;6.50;;;4.60;90.60;;;;;;5048446;28;20064;-76
2020/12/31 12:09:23;;;;;;;11.23;6.97;;;4.50;90.60;;;;;;5030930;28;20021;-76
2020/12/31 12:11:49;;;;;;;11.52;6.22;;;4.50;90.80;;;;;;5040819;28;20051;-76
2020/12/31 12:14:15;;;;;;;11.07;6.55;;;4.50;90.80;;;;;;5040949;28;20032;-76
2020/12/31 12:16:42;;;;;;;9.82;6.18;;;4.40;90.90;;;;;;5019667;28;20029;-76
2020/12/31 12:19:10;;;;;;;10.23;6.72;;;4.50;91.00;;;;;;5033478;28;20020;-75
2020/12/31 12:21:38;;;;;;;11.50;7.32;;;4.50;91.00;;;;;;5033999;28;20069;-76
2020/12/31 12:24:05;;;;;;;13.10;7.60;;;4.50;91.00;;;;;;5038167;28;20032;-76
2020/12/31 12:26:38;;;;;;;11.52;7.25;;;4.50;90.90;;;;;;5018064;28;20032;-76
2020/12/31 12:29:05;;;;;;;9.48;6.03;;;4.50;90.90;;;;;;5010023;28;20029;-76
2020/12/31 12:31:35;;;;;;;9.02;6.30;;;4.50;91.00;;;;;;5028884;28;20036;-74
2020/12/31 12:34:02;;;;;;;9.98;6.55;;;4.50;91.00;;;;;;5038737;28;20029;-78
2020/12/31 12:36:28;;;;;;;11.68;7.55;;;4.50;91.00;;;;;;5045910;28;20492;-80
2020/12/31 12:38:55;;;;;;;11.18;6.85;;;4.40;90.90;;;;;;5039829;28;20038;-79
2020/12/31 12:41:21;;;;;;;11.75;8.07;;;4.50;91.00;;;;;;5021948;28;20017;-77
2020/12/31 12:43:46;;;;;;;15.68;8.65;;;4.40;91.10;;;;;;5041534;28;20032;-78
2020/12/31 12:46:16;;;;;;;11.05;6.78;;;4.40;91.00;;;;;;5040833;28;20025;-78
2020/12/31 12:48:42;;;;;;;11.85;8.00;;;4.40;91.00;;;;;;5034184;28;20021;-76